sensor_id;sensor_type;location;lat;lon;timestamp;pressure;altitude;pressure_sealevel;temperature;humidity
19112;BME280;9688;51.906;8.376;2022-09-16T00:01:48;100023.44;;;14.31;85.57
19112;BME280;9688;51.906;8.376;2022-09-16T00:04:52;100038.63;;;14.28;85.69
19112;BME280;9688;51.906;8.376;2022-09-16T00:07:56;100035.69;;;14.33;85.57
19112;BME280;9688;51.906;8.376;2022-09-16T00:11:01;100032.28;;;14.31;85.69
19112;BME280;9688;51.906;8.376;2022-09-16T00:14:06;100033.97;;;14.32;85.41
19112;BME280;9688;51.906;8.376;2022-09-16T00:17:12;100033.13;;;14.32;85.67
19112;BME280;9688;51.906;8.376;2022-09-16T00:20:16;100030.47;;;14.32;85.27
19112;BME280;9688;51.906;8.376;2022-09-16T00:23:21;100021.72;;;14.29;85.35
19112;BME280;9688;51.906;8.376;2022-09-16T00:26:25;100029.69;;;14.29;85.43
19112;BME280;9688;51.906;8.376;2022-09-16T00:29:29;100035.31;;;14.25;85.40
19112;BME280;9688;51.906;8.376;2022-09-16T00:32:35;100021.06;;;14.26;85.21
19112;BME280;9688;51.906;8.376;2022-09-16T00:35:39;100025.63;;;14.24;85.34
19112;BME280;9688;51.906;8.376;2022-09-16T00:38:44;100032.84;;;14.22;84.85
19112;BME280;9688;51.906;8.376;2022-09-16T00:41:49;100018.69;;;14.21;85.35
19112;BME280;9688;51.906;8.376;2022-09-16T00:44:57;100018.59;;;14.23;85.17
19112;BME280;9688;51.906;8.376;2022-09-16T00:48:06;100015.88;;;14.24;85.27
19112;BME280;9688;51.906;8.376;2022-09-16T00:51:14;100022.88;;;14.25;84.93
19112;BME280;9688;51.906;8.376;2022-09-16T00:54:19;100028.97;;;14.27;84.88
19112;BME280;9688;51.906;8.376;2022-09-16T00:57:24;100025.53;;;14.25;84.69
19112;BME280;9688;51.906;8.376;2022-09-16T01:00:28;100021.06;;;14.26;85.02
19112;BME280;9688;51.906;8.376;2022-09-16T01:03:37;100022.97;;;14.24;85.29
19112;BME280;9688;51.906;8.376;2022-09-16T01:06:45;100029.25;;;14.23;85.23
19112;BME280;9688;51.906;8.376;2022-09-16T01:09:49;100031.06;;;14.22;85.10
19112;BME280;9688;51.906;8.376;2022-09-16T01:12:56;100024.56;;;14.26;85.24
19112;BME280;9688;51.906;8.376;2022-09-16T01:16:06;100023.84;;;14.24;85.33
19112;BME280;9688;51.906;8.376;2022-09-16T01:19:31;100018.59;;;14.23;85.48
19112;BME280;9688;51.906;8.376;2022-09-16T01:22:51;100022.13;;;14.23;85.19
19112;BME280;9688;51.906;8.376;2022-09-16T01:26:13;100024.31;;;14.17;85.52
19112;BME280;9688;51.906;8.376;2022-09-16T01:33:15;100028.69;;;14.03;85.48
19112;BME280;9688;51.906;8.376;2022-09-16T01:36:34;100024.03;;;13.93;86.11
19112;BME280;9688;51.906;8.376;2022-09-16T01:39:47;100018.84;;;13.91;85.99
19112;BME280;9688;51.906;8.376;2022-09-16T01:42:57;100020.41;;;13.94;85.70
19112;BME280;9688;51.906;8.376;2022-09-16T01:46:14;100018.72;;;13.93;85.94
19112;BME280;9688;51.906;8.376;2022-09-16T01:49:27;100016.84;;;13.95;85.73
19112;BME280;9688;51.906;8.376;2022-09-16T01:52:42;100021.19;;;13.96;85.48
19112;BME280;9688;51.906;8.376;2022-09-16T01:55:53;100020.34;;;13.95;85.77
19112;BME280;9688;51.906;8.376;2022-09-16T01:59:04;100022.03;;;13.96;85.73
19112;BME280;9688;51.906;8.376;2022-09-16T02:02:16;100021.19;;;13.96;85.70
19112;BME280;9688;51.906;8.376;2022-09-16T02:05:25;100023.84;;;13.96;86.12
19112;BME280;9688;51.906;8.376;2022-09-16T02:08:35;100022.91;;;13.97;85.87
19112;BME280;9688;51.906;8.376;2022-09-16T02:11:42;100018.53;;;13.96;85.83
19112;BME280;9688;51.906;8.376;2022-09-16T02:14:50;100015.97;;;13.94;85.95
19112;BME280;9688;51.906;8.376;2022-09-16T02:18:00;100009.72;;;13.95;86.69
19112;BME280;9688;51.906;8.376;2022-09-16T02:21:10;100005.16;;;13.97;86.11
19112;BME280;9688;51.906;8.376;2022-09-16T02:24:16;100014.19;;;13.95;86.72
19112;BME280;9688;51.906;8.376;2022-09-16T02:27:22;100008.09;;;13.93;86.29
19112;BME280;9688;51.906;8.376;2022-09-16T02:30:26;100014.63;;;13.87;86.52
19112;BME280;9688;51.906;8.376;2022-09-16T02:33:33;100009.25;;;13.89;86.53
19112;BME280;9688;51.906;8.376;2022-09-16T02:36:44;100011.91;;;13.89;86.97
19112;BME280;9688;51.906;8.376;2022-09-16T02:39:53;100019.00;;;13.88;86.74
19112;BME280;9688;51.906;8.376;2022-09-16T02:43:00;100014.75;;;13.86;86.67
19112;BME280;9688;51.906;8.376;2022-09-16T02:46:08;100005.25;;;13.81;87.02
19112;BME280;9688;51.906;8.376;2022-09-16T02:49:20;100014.25;;;13.79;87.11
19112;BME280;9688;51.906;8.376;2022-09-16T02:52:35;100020.34;;;13.81;87.03
19112;BME280;9688;51.906;8.376;2022-09-16T02:55:47;100007.63;;;13.86;86.68
19112;BME280;9688;51.906;8.376;2022-09-16T02:58:55;100017.09;;;13.90;86.72
19112;BME280;9688;51.906;8.376;2022-09-16T03:01:59;100017.03;;;13.92;86.76
19112;BME280;9688;51.906;8.376;2022-09-16T03:05:05;100016.25;;;13.90;86.86
19112;BME280;9688;51.906;8.376;2022-09-16T03:08:12;100018.16;;;13.88;86.79
19112;BME280;9688;51.906;8.376;2022-09-16T03:15:31;100019.09;;;13.72;87.06
19112;BME280;9688;51.906;8.376;2022-09-16T03:18:55;100008.47;;;13.72;87.09
19112;BME280;9688;51.906;8.376;2022-09-16T03:22:12;100004.22;;;13.70;87.12
19112;BME280;9688;51.906;8.376;2022-09-16T03:25:33;100000.69;;;13.69;87.02
19112;BME280;9688;51.906;8.376;2022-09-16T03:28:44;100005.13;;;13.69;86.74
19112;BME280;9688;51.906;8.376;2022-09-16T03:31:54;100004.09;;;13.71;86.91
19112;BME280;9688;51.906;8.376;2022-09-16T03:35:03;99993.78;;;13.67;86.88
19112;BME280;9688;51.906;8.376;2022-09-16T03:38:11;99994.69;;;13.66;87.09
19112;BME280;9688;51.906;8.376;2022-09-16T03:41:18;99994.03;;;13.62;87.33
19112;BME280;9688;51.906;8.376;2022-09-16T03:44:30;99996.69;;;13.62;87.15
19112;BME280;9688;51.906;8.376;2022-09-16T03:47:35;99997.56;;;13.63;87.02
19112;BME280;9688;51.906;8.376;2022-09-16T03:50:39;99997.34;;;13.66;87.12
19112;BME280;9688;51.906;8.376;2022-09-16T03:53:43;99994.63;;;13.67;87.16
19112;BME280;9688;51.906;8.376;2022-09-16T03:56:49;99995.75;;;13.63;87.27
19112;BME280;9688;51.906;8.376;2022-09-16T03:59:53;99996.03;;;13.58;87.38
19112;BME280;9688;51.906;8.376;2022-09-16T04:02:58;100005.81;;;13.58;87.20
19112;BME280;9688;51.906;8.376;2022-09-16T04:06:03;100007.72;;;13.56;87.32
19112;BME280;9688;51.906;8.376;2022-09-16T04:09:10;100004.09;;;13.57;87.59
19112;BME280;9688;51.906;8.376;2022-09-16T04:12:15;99999.63;;;13.57;87.61
19112;BME280;9688;51.906;8.376;2022-09-16T04:15:20;100003.06;;;13.59;87.39
19112;BME280;9688;51.906;8.376;2022-09-16T04:18:24;99998.69;;;13.58;87.53
19112;BME280;9688;51.906;8.376;2022-09-16T04:21:29;99995.84;;;13.61;87.70
19112;BME280;9688;51.906;8.376;2022-09-16T04:24:33;99993.84;;;13.65;87.68
19112;BME280;9688;51.906;8.376;2022-09-16T04:27:39;99990.16;;;13.68;87.56
19112;BME280;9688;51.906;8.376;2022-09-16T04:30:43;99991.97;;;13.67;87.88
19112;BME280;9688;51.906;8.376;2022-09-16T04:33:48;99988.53;;;13.65;87.80
19112;BME280;9688;51.906;8.376;2022-09-16T04:36:53;99985.13;;;13.63;87.89
19112;BME280;9688;51.906;8.376;2022-09-16T04:39:57;99978.03;;;13.64;87.68
19112;BME280;9688;51.906;8.376;2022-09-16T04:43:03;99978.13;;;13.62;88.03
19112;BME280;9688;51.906;8.376;2022-09-16T04:46:08;99975.47;;;13.62;87.91
19112;BME280;9688;51.906;8.376;2022-09-16T04:49:13;99980.84;;;13.60;87.83
19112;BME280;9688;51.906;8.376;2022-09-16T04:52:17;99989.97;;;13.56;88.20
19112;BME280;9688;51.906;8.376;2022-09-16T04:55:21;99983.88;;;13.54;88.20
19112;BME280;9688;51.906;8.376;2022-09-16T04:58:29;99986.66;;;13.53;88.28
19112;BME280;9688;51.906;8.376;2022-09-16T05:01:36;99980.50;;;13.52;88.06
19112;BME280;9688;51.906;8.376;2022-09-16T05:04:41;99984.25;;;13.48;88.44
19112;BME280;9688;51.906;8.376;2022-09-16T05:07:45;99981.88;;;13.44;88.46
19112;BME280;9688;51.906;8.376;2022-09-16T05:10:49;99981.22;;;13.40;88.79
19112;BME280;9688;51.906;8.376;2022-09-16T05:13:57;99973.44;;;13.37;88.84
19112;BME280;9688;51.906;8.376;2022-09-16T05:17:02;99985.94;;;13.35;88.87
19112;BME280;9688;51.906;8.376;2022-09-16T05:20:06;99993.31;;;13.30;89.13
19112;BME280;9688;51.906;8.376;2022-09-16T05:23:11;99996.16;;;13.27;89.31
19112;BME280;9688;51.906;8.376;2022-09-16T05:26:17;99996.31;;;13.24;89.41
19112;BME280;9688;51.906;8.376;2022-09-16T05:29:23;100001.81;;;13.21;89.54
19112;BME280;9688;51.906;8.376;2022-09-16T05:32:28;99997.53;;;13.18;89.44
19112;BME280;9688;51.906;8.376;2022-09-16T05:35:33;99994.22;;;13.14;89.76
19112;BME280;9688;51.906;8.376;2022-09-16T05:38:38;100000.13;;;13.20;89.61
19112;BME280;9688;51.906;8.376;2022-09-16T05:41:44;99998.75;;;13.28;89.50
19112;BME280;9688;51.906;8.376;2022-09-16T05:44:50;100003.59;;;13.36;89.26
19112;BME280;9688;51.906;8.376;2022-09-16T05:47:56;99999.72;;;13.42;89.00
19112;BME280;9688;51.906;8.376;2022-09-16T05:51:04;100012.69;;;13.46;88.90
19112;BME280;9688;51.906;8.376;2022-09-16T05:54:10;100008.63;;;13.55;89.03
19112;BME280;9688;51.906;8.376;2022-09-16T05:57:17;99999.44;;;13.60;88.47
19112;BME280;9688;51.906;8.376;2022-09-16T06:00:25;100009.03;;;13.63;88.68
19112;BME280;9688;51.906;8.376;2022-09-16T06:03:30;100007.97;;;13.66;88.46
19112;BME280;9688;51.906;8.376;2022-09-16T06:06:37;99991.69;;;13.72;88.15
19112;BME280;9688;51.906;8.376;2022-09-16T06:09:42;100002.97;;;13.75;88.07
19112;BME280;9688;51.906;8.376;2022-09-16T06:12:48;100000.41;;;13.74;88.13
19112;BME280;9688;51.906;8.376;2022-09-16T06:15:54;99999.66;;;13.72;88.04
19112;BME280;9688;51.906;8.376;2022-09-16T06:19:04;100009.41;;;13.71;88.39
19112;BME280;9688;51.906;8.376;2022-09-16T06:22:13;99999.66;;;13.72;88.10
19112;BME280;9688;51.906;8.376;2022-09-16T06:25:19;100005.31;;;13.80;88.14
19112;BME280;9688;51.906;8.376;2022-09-16T06:28:23;100011.22;;;13.85;87.69
19112;BME280;9688;51.906;8.376;2022-09-16T06:31:29;99997.56;;;13.91;87.51
19112;BME280;9688;51.906;8.376;2022-09-16T06:34:34;100001.34;;;14.01;87.29
19112;BME280;9688;51.906;8.376;2022-09-16T06:37:39;100003.59;;;14.07;87.01
19112;BME280;9688;51.906;8.376;2022-09-16T06:40:43;100002.56;;;14.10;86.67
19112;BME280;9688;51.906;8.376;2022-09-16T06:43:49;100005.53;;;14.05;86.62
19112;BME280;9688;51.906;8.376;2022-09-16T06:46:55;99998.88;;;13.98;86.59
19112;BME280;9688;51.906;8.376;2022-09-16T06:50:00;100000.03;;;13.94;86.61
19112;BME280;9688;51.906;8.376;2022-09-16T06:53:09;99997.25;;;13.96;86.58
19112;BME280;9688;51.906;8.376;2022-09-16T06:56:16;99994.22;;;14.02;86.38
19112;BME280;9688;51.906;8.376;2022-09-16T06:59:21;99994.91;;;14.05;86.23
19112;BME280;9688;51.906;8.376;2022-09-16T07:02:27;99996.31;;;14.11;85.84
19112;BME280;9688;51.906;8.376;2022-09-16T07:05:33;100000.28;;;14.18;85.88
19112;BME280;9688;51.906;8.376;2022-09-16T07:08:38;99994.97;;;14.18;85.47
19112;BME280;9688;51.906;8.376;2022-09-16T07:11:42;99997.41;;;14.21;85.26
19112;BME280;9688;51.906;8.376;2022-09-16T07:14:47;100004.84;;;14.31;84.62
19112;BME280;9688;51.906;8.376;2022-09-16T07:17:54;100010.38;;;14.55;84.51
19112;BME280;9688;51.906;8.376;2022-09-16T07:21:03;100004.72;;;14.73;83.52
19112;BME280;9688;51.906;8.376;2022-09-16T07:24:10;100008.78;;;14.79;83.13
19112;BME280;9688;51.906;8.376;2022-09-16T07:27:15;100018.50;;;14.80;82.45
19112;BME280;9688;51.906;8.376;2022-09-16T07:30:20;100009.47;;;14.83;82.66
19112;BME280;9688;51.906;8.376;2022-09-16T07:33:26;100013.31;;;14.91;81.79
19112;BME280;9688;51.906;8.376;2022-09-16T07:36:33;100011.38;;;14.93;81.67
19112;BME280;9688;51.906;8.376;2022-09-16T07:39:39;100015.63;;;15.10;81.07
19112;BME280;9688;51.906;8.376;2022-09-16T07:42:43;100016.19;;;15.28;80.78
19112;BME280;9688;51.906;8.376;2022-09-16T07:45:54;100023.66;;;15.36;79.85
19112;BME280;9688;51.906;8.376;2022-09-16T07:49:02;100025.66;;;15.32;80.12
19112;BME280;9688;51.906;8.376;2022-09-16T07:52:07;100030.31;;;15.16;79.97
19112;BME280;9688;51.906;8.376;2022-09-16T07:55:11;100030.91;;;14.94;80.52
19112;BME280;9688;51.906;8.376;2022-09-16T07:58:17;100028.75;;;14.86;80.44
19112;BME280;9688;51.906;8.376;2022-09-16T08:01:23;100028.63;;;14.88;80.84
19112;BME280;9688;51.906;8.376;2022-09-16T08:04:31;100033.66;;;14.92;80.11
19112;BME280;9688;51.906;8.376;2022-09-16T08:07:39;100028.03;;;14.97;79.89
19112;BME280;9688;51.906;8.376;2022-09-16T08:10:52;100034.00;;;15.01;80.16
19112;BME280;9688;51.906;8.376;2022-09-16T08:13:58;100030.31;;;15.16;79.83
19112;BME280;9688;51.906;8.376;2022-09-16T08:17:03;100026.19;;;15.25;79.33
19112;BME280;9688;51.906;8.376;2022-09-16T08:20:09;100031.53;;;15.37;78.82
19112;BME280;9688;51.906;8.376;2022-09-16T08:23:14;100027.41;;;15.59;78.87
19112;BME280;9688;51.906;8.376;2022-09-16T08:26:20;100025.09;;;15.80;78.11
19112;BME280;9688;51.906;8.376;2022-09-16T08:29:26;100024.53;;;16.00;76.95
19112;BME280;9688;51.906;8.376;2022-09-16T08:32:32;100036.13;;;16.25;76.03
19112;BME280;9688;51.906;8.376;2022-09-16T08:35:38;100023.41;;;16.41;75.14
19112;BME280;9688;51.906;8.376;2022-09-16T08:38:43;100029.03;;;16.49;74.71
19112;BME280;9688;51.906;8.376;2022-09-16T08:45:28;100034.09;;;16.65;74.26
19112;BME280;9688;51.906;8.376;2022-09-16T08:48:45;100029.72;;;16.77;73.37
19112;BME280;9688;51.906;8.376;2022-09-16T08:51:55;100025.78;;;16.94;72.97
19112;BME280;9688;51.906;8.376;2022-09-16T08:55:03;100037.19;;;17.20;72.22
19112;BME280;9688;51.906;8.376;2022-09-16T08:58:13;100034.44;;;17.33;71.28
19112;BME280;9688;51.906;8.376;2022-09-16T09:01:25;100038.56;;;17.37;70.74
19112;BME280;9688;51.906;8.376;2022-09-16T09:04:32;100036.72;;;17.26;70.71
19112;BME280;9688;51.906;8.376;2022-09-16T09:07:49;100033.69;;;17.31;69.35
19112;BME280;9688;51.906;8.376;2022-09-16T09:11:01;100034.34;;;17.46;68.62
19112;BME280;9688;51.906;8.376;2022-09-16T09:14:22;100029.66;;;17.60;68.46
19112;BME280;9688;51.906;8.376;2022-09-16T09:17:40;100025.81;;;17.87;67.11
19112;BME280;9688;51.906;8.376;2022-09-16T09:20:53;100034.56;;;17.89;66.81
19112;BME280;9688;51.906;8.376;2022-09-16T09:24:15;100038.34;;;17.98;66.70
19112;BME280;9688;51.906;8.376;2022-09-16T09:27:26;100033.59;;;17.79;65.88
19112;BME280;9688;51.906;8.376;2022-09-16T09:30:35;100031.59;;;17.58;65.78
19112;BME280;9688;51.906;8.376;2022-09-16T09:33:46;100031.81;;;17.55;65.30
19112;BME280;9688;51.906;8.376;2022-09-16T09:37:07;100035.94;;;17.59;64.78
19112;BME280;9688;51.906;8.376;2022-09-16T09:40:33;100035.94;;;17.59;64.28
19112;BME280;9688;51.906;8.376;2022-09-16T09:43:46;100028.81;;;17.60;63.30
19112;BME280;9688;51.906;8.376;2022-09-16T09:46:59;100031.59;;;17.70;61.95
19112;BME280;9688;51.906;8.376;2022-09-16T09:50:16;100019.47;;;17.66;60.88
19112;BME280;9688;51.906;8.376;2022-09-16T09:53:24;100014.56;;;17.59;60.09
19112;BME280;9688;51.906;8.376;2022-09-16T09:56:34;100007.88;;;17.65;59.47
19112;BME280;9688;51.906;8.376;2022-09-16T09:59:43;100014.75;;;17.80;58.45
19112;BME280;9688;51.906;8.376;2022-09-16T10:02:51;99995.19;;;17.91;57.92
19112;BME280;9688;51.906;8.376;2022-09-16T10:05:56;99998.09;;;18.22;56.86
19112;BME280;9688;51.906;8.376;2022-09-16T10:09:01;100002.19;;;18.37;56.62
19112;BME280;9688;51.906;8.376;2022-09-16T10:12:07;99997.34;;;18.31;56.04
19112;BME280;9688;51.906;8.376;2022-09-16T10:15:22;99998.84;;;18.24;55.65
19112;BME280;9688;51.906;8.376;2022-09-16T10:18:30;99996.97;;;18.47;55.35
19112;BME280;9688;51.906;8.376;2022-09-16T10:21:41;99994.38;;;18.68;54.50
19112;BME280;9688;51.906;8.376;2022-09-16T10:24:53;99990.31;;;18.85;54.00
19112;BME280;9688;51.906;8.376;2022-09-16T10:28:01;100002.00;;;18.84;54.41
19112;BME280;9688;51.906;8.376;2022-09-16T10:31:06;99989.44;;;18.84;54.03
19112;BME280;9688;51.906;8.376;2022-09-16T10:34:16;99987.38;;;18.88;53.72
19112;BME280;9688;51.906;8.376;2022-09-16T10:37:22;99981.72;;;19.02;53.03
19112;BME280;9688;51.906;8.376;2022-09-16T10:40:31;99984.44;;;18.91;53.52
19112;BME280;9688;51.906;8.376;2022-09-16T10:43:46;99978.28;;;18.79;54.04
19112;BME280;9688;51.906;8.376;2022-09-16T10:46:54;99982.41;;;18.83;53.61
19112;BME280;9688;51.906;8.376;2022-09-16T10:50:16;99974.88;;;18.77;53.56
19112;BME280;9688;51.906;8.376;2022-09-16T10:53:25;99970.72;;;18.73;53.65
19112;BME280;9688;51.906;8.376;2022-09-16T10:56:34;99974.88;;;18.77;53.17
19112;BME280;9688;51.906;8.376;2022-09-16T10:59:58;99969.84;;;19.16;52.07
19112;BME280;9688;51.906;8.376;2022-09-16T11:03:29;99970.44;;;19.41;51.67
19112;BME280;9688;51.906;8.376;2022-09-16T11:06:48;99963.41;;;19.49;51.24
19112;BME280;9688;51.906;8.376;2022-09-16T11:10:01;99957.66;;;19.54;51.29
19112;BME280;9688;51.906;8.376;2022-09-16T11:13:23;99965.63;;;19.65;50.55
19112;BME280;9688;51.906;8.376;2022-09-16T11:16:47;99955.13;;;19.73;50.33
19112;BME280;9688;51.906;8.376;2022-09-16T11:20:30;99958.69;;;19.63;50.41
19112;BME280;9688;51.906;8.376;2022-09-16T11:23:57;99955.75;;;19.45;51.26
19112;BME280;9688;51.906;8.376;2022-09-16T11:27:12;99957.88;;;19.41;51.41
19112;BME280;9688;51.906;8.376;2022-09-16T11:30:21;99947.69;;;19.35;51.54
19112;BME280;9688;51.906;8.376;2022-09-16T11:33:35;99951.22;;;19.35;51.83
19112;BME280;9688;51.906;8.376;2022-09-16T11:36:53;99945.75;;;19.47;51.46
19112;BME280;9688;51.906;8.376;2022-09-16T11:40:23;99945.97;;;19.65;50.34
19112;BME280;9688;51.906;8.376;2022-09-16T11:43:46;99948.00;;;19.93;49.52
19112;BME280;9688;51.906;8.376;2022-09-16T11:47:14;99948.47;;;20.08;48.85
19112;BME280;9688;51.906;8.376;2022-09-16T11:50:39;99948.34;;;20.10;48.66
19112;BME280;9688;51.906;8.376;2022-09-16T11:54:05;99948.06;;;20.13;48.50
19112;BME280;9688;51.906;8.376;2022-09-16T11:57:17;99953.53;;;20.11;48.52
19112;BME280;9688;51.906;8.376;2022-09-16T12:00:24;99953.16;;;20.16;48.96
19112;BME280;9688;51.906;8.376;2022-09-16T12:03:36;99935.75;;;20.10;48.49
19112;BME280;9688;51.906;8.376;2022-09-16T12:06:50;99949.13;;;19.91;48.81
19112;BME280;9688;51.906;8.376;2022-09-16T12:09:59;99948.59;;;19.76;48.90
19112;BME280;9688;51.906;8.376;2022-09-16T12:13:14;99943.97;;;19.78;48.92
19112;BME280;9688;51.906;8.376;2022-09-16T12:16:25;99935.97;;;19.88;48.39
19112;BME280;9688;51.906;8.376;2022-09-16T12:19:34;99946.09;;;19.84;49.12
19112;BME280;9688;51.906;8.376;2022-09-16T12:22:44;99954.44;;;19.60;49.59
19112;BME280;9688;51.906;8.376;2022-09-16T12:25:59;99986.22;;;19.23;52.67
19112;BME280;9688;51.906;8.376;2022-09-16T12:29:17;100000.13;;;18.52;55.92
19112;BME280;9688;51.906;8.376;2022-09-16T12:32:36;100012.44;;;17.87;59.70
19112;BME280;9688;51.906;8.376;2022-09-16T12:35:48;100006.06;;;17.43;62.06
19112;BME280;9688;51.906;8.376;2022-09-16T12:38:58;100005.09;;;17.09;63.01
19112;BME280;9688;51.906;8.376;2022-09-16T12:42:26;100009.50;;;16.73;64.28
19112;BME280;9688;51.906;8.376;2022-09-16T12:57:07;99961.91;;;16.19;68.92
19112;BME280;9688;51.906;8.376;2022-09-16T13:00:19;99952.66;;;16.36;68.20
19112;BME280;9688;51.906;8.376;2022-09-16T13:03:26;99964.16;;;16.49;67.16
19112;BME280;9688;51.906;8.376;2022-09-16T13:06:38;99960.56;;;16.61;67.49
19112;BME280;9688;51.906;8.376;2022-09-16T13:09:43;99961.94;;;16.91;66.68
19112;BME280;9688;51.906;8.376;2022-09-16T13:12:53;99945.63;;;17.18;65.86
19112;BME280;9688;51.906;8.376;2022-09-16T13:16:02;99944.09;;;17.38;65.07
19112;BME280;9688;51.906;8.376;2022-09-16T13:19:33;99937.06;;;17.59;65.08
19112;BME280;9688;51.906;8.376;2022-09-16T13:22:44;99923.97;;;17.79;64.30
19112;BME280;9688;51.906;8.376;2022-09-16T13:25:56;99918.13;;;17.74;64.73
19112;BME280;9688;51.906;8.376;2022-09-16T13:33:00;99916.28;;;17.29;64.34
19112;BME280;9688;51.906;8.376;2022-09-16T13:36:16;99920.75;;;17.29;64.71
19112;BME280;9688;51.906;8.376;2022-09-16T13:39:34;99913.25;;;17.56;62.82
19112;BME280;9688;51.906;8.376;2022-09-16T13:42:39;99913.63;;;17.74;62.50
19112;BME280;9688;51.906;8.376;2022-09-16T13:45:44;99916.44;;;17.84;60.70
19112;BME280;9688;51.906;8.376;2022-09-16T13:48:55;99915.09;;;17.90;59.31
19112;BME280;9688;51.906;8.376;2022-09-16T13:52:09;99918.25;;;17.95;57.99
19112;BME280;9688;51.906;8.376;2022-09-16T13:55:20;99919.09;;;17.95;57.32
19112;BME280;9688;51.906;8.376;2022-09-16T13:58:28;99922.22;;;18.12;56.63
19112;BME280;9688;51.906;8.376;2022-09-16T14:01:37;99913.00;;;18.16;56.03
19112;BME280;9688;51.906;8.376;2022-09-16T14:05:02;99911.19;;;18.05;56.37
19112;BME280;9688;51.906;8.376;2022-09-16T14:08:16;99907.53;;;18.06;55.52
19112;BME280;9688;51.906;8.376;2022-09-16T14:11:28;99915.56;;;18.06;55.39
19112;BME280;9688;51.906;8.376;2022-09-16T14:14:35;99918.63;;;18.01;56.21
19112;BME280;9688;51.906;8.376;2022-09-16T14:17:44;99910.22;;;17.95;56.62
19112;BME280;9688;51.906;8.376;2022-09-16T14:21:01;99906.94;;;17.91;56.20
19112;BME280;9688;51.906;8.376;2022-09-16T14:24:07;99898.69;;;17.72;56.56
19112;BME280;9688;51.906;8.376;2022-09-16T14:27:20;99894.66;;;17.66;56.77
19112;BME280;9688;51.906;8.376;2022-09-16T14:30:25;99894.78;;;17.65;56.76
19112;BME280;9688;51.906;8.376;2022-09-16T14:33:32;99895.25;;;17.70;56.89
19112;BME280;9688;51.906;8.376;2022-09-16T14:36:40;99906.44;;;17.97;56.51
19112;BME280;9688;51.906;8.376;2022-09-16T14:39:46;99900.53;;;18.26;55.77
19112;BME280;9688;51.906;8.376;2022-09-16T14:42:55;99892.00;;;18.43;54.70
19112;BME280;9688;51.906;8.376;2022-09-16T14:46:06;99901.09;;;18.52;54.59
19112;BME280;9688;51.906;8.376;2022-09-16T14:49:13;99889.22;;;18.66;54.36
19112;BME280;9688;51.906;8.376;2022-09-16T14:52:25;99883.25;;;18.94;53.75
19112;BME280;9688;51.906;8.376;2022-09-16T14:55:33;99876.94;;;18.96;53.22
19112;BME280;9688;51.906;8.376;2022-09-16T14:58:42;99885.47;;;19.10;52.17
19112;BME280;9688;51.906;8.376;2022-09-16T15:01:47;99924.16;;;18.97;51.28
19112;BME280;9688;51.906;8.376;2022-09-16T15:04:55;99927.91;;;18.62;52.14
19112;BME280;9688;51.906;8.376;2022-09-16T15:08:09;99952.16;;;18.05;54.75
19112;BME280;9688;51.906;8.376;2022-09-16T15:11:19;99946.78;;;17.38;57.64
19112;BME280;9688;51.906;8.376;2022-09-16T15:14:24;99972.44;;;16.81;61.47
19112;BME280;9688;51.906;8.376;2022-09-16T15:17:30;99964.22;;;16.23;65.31
19112;BME280;9688;51.906;8.376;2022-09-16T15:20:38;99953.13;;;15.80;67.42
19112;BME280;9688;51.906;8.376;2022-09-16T15:23:48;99947.91;;;15.53;69.34
19112;BME280;9688;51.906;8.376;2022-09-16T15:26:55;99948.13;;;15.24;69.99
19112;BME280;9688;51.906;8.376;2022-09-16T15:30:00;99961.63;;;15.08;70.38
19112;BME280;9688;51.906;8.376;2022-09-16T15:33:22;99957.78;;;15.00;71.41
19112;BME280;9688;51.906;8.376;2022-09-16T15:36:34;99952.50;;;14.85;71.84
19112;BME280;9688;51.906;8.376;2022-09-16T15:39:40;99942.81;;;14.71;72.13
19112;BME280;9688;51.906;8.376;2022-09-16T15:43:01;99935.75;;;14.70;72.03
19112;BME280;9688;51.906;8.376;2022-09-16T15:46:14;99926.72;;;14.73;72.03
19112;BME280;9688;51.906;8.376;2022-09-16T15:49:20;99934.06;;;14.82;72.13
19112;BME280;9688;51.906;8.376;2022-09-16T15:52:32;99937.78;;;14.80;72.52
19112;BME280;9688;51.906;8.376;2022-09-16T15:55:43;99926.41;;;14.78;72.68
19112;BME280;9688;51.906;8.376;2022-09-16T15:58:56;99935.47;;;14.75;73.31
19112;BME280;9688;51.906;8.376;2022-09-16T16:02:05;99952.91;;;14.79;73.29
19112;BME280;9688;51.906;8.376;2022-09-16T16:05:24;99949.97;;;14.84;73.94
19112;BME280;9688;51.906;8.376;2022-09-16T16:08:38;99933.22;;;14.82;74.26
19112;BME280;9688;51.906;8.376;2022-09-16T16:11:45;99934.63;;;14.75;74.91
19112;BME280;9688;51.906;8.376;2022-09-16T16:14:49;99932.38;;;14.81;74.93
19112;BME280;9688;51.906;8.376;2022-09-16T16:17:58;99922.38;;;14.85;74.74
19112;BME280;9688;51.906;8.376;2022-09-16T16:21:11;99929.09;;;14.90;74.78
19112;BME280;9688;51.906;8.376;2022-09-16T16:24:43;99923.78;;;14.90;74.74
19112;BME280;9688;51.906;8.376;2022-09-16T16:27:54;99923.78;;;14.90;74.42
19112;BME280;9688;51.906;8.376;2022-09-16T16:31:13;99914.31;;;14.86;74.67
19112;BME280;9688;51.906;8.376;2022-09-16T16:34:19;99922.38;;;14.85;75.40
19112;BME280;9688;51.906;8.376;2022-09-16T16:37:25;99922.59;;;14.82;75.53
19112;BME280;9688;51.906;8.376;2022-09-16T16:40:30;99930.56;;;14.82;75.82
19112;BME280;9688;51.906;8.376;2022-09-16T16:43:37;99926.97;;;14.83;75.98
19112;BME280;9688;51.906;8.376;2022-09-16T16:46:42;99940.06;;;14.86;76.13
19112;BME280;9688;51.906;8.376;2022-09-16T16:49:47;99936.34;;;14.88;76.30
19112;BME280;9688;51.906;8.376;2022-09-16T16:52:52;99926.63;;;14.87;76.38
19112;BME280;9688;51.906;8.376;2022-09-16T16:56:02;99930.16;;;14.88;75.89
19112;BME280;9688;51.906;8.376;2022-09-16T16:59:08;99923.97;;;14.87;75.87
19112;BME280;9688;51.906;8.376;2022-09-16T17:02:15;99924.75;;;14.89;75.74
19112;BME280;9688;51.906;8.376;2022-09-16T17:05:19;99921.09;;;14.90;75.91
19112;BME280;9688;51.906;8.376;2022-09-16T17:08:24;99929.97;;;14.91;75.23
19112;BME280;9688;51.906;8.376;2022-09-16T17:11:28;99921.22;;;14.89;75.35
19112;BME280;9688;51.906;8.376;2022-09-16T17:14:34;99931.03;;;14.88;74.93
19112;BME280;9688;51.906;8.376;2022-09-16T17:17:39;99935.38;;;14.89;74.50